Terminal Aerodrome Forecast
Issued by NWS

Home | Current Version | Previous Version | Text Only | Print | Product List | Glossary On
Versions: 1 2 3 4 5 6 7 8 9 10 11 12 13 14 15 16 17 18 19 20 21
000
FTUS43 KIND 230520
TAFHUF
TAF
KHUF 230520Z 2306/2406 31011KT 4SM BR OVC005
     FM230800 34012KT 3SM BR OVC004
     FM231600 34013KT P6SM OVC008
     FM231900 34012KT P6SM OVC010
     FM240100 33008KT P6SM BKN015
     FM240400 33006KT P6SM BKN020=

USA.gov is the U.S. government's official web portal to all federal, state and local government web resources and services.